createdAt,value
2023-05-06T00:01:05.205Z,53.18
2023-05-06T00:03:33.097Z,53.43
2023-05-06T00:06:03.169Z,53.73
2023-05-06T00:08:31.160Z,53.77
2023-05-06T00:10:59.048Z,53.63
2023-05-06T00:13:28.920Z,53.50
2023-05-06T00:15:59.483Z,53.70
2023-05-06T00:18:28.234Z,53.17
2023-05-06T00:20:56.359Z,53.50
2023-05-06T00:23:24.371Z,53.47
2023-05-06T00:25:54.542Z,53.26
2023-05-06T00:28:23.027Z,53.21
2023-05-06T00:30:51.407Z,53.31
2023-05-06T00:33:21.353Z,53.11
2023-05-06T00:35:49.801Z,53.06
2023-05-06T00:38:19.745Z,52.97
2023-05-06T00:40:48.656Z,52.98
2023-05-06T00:43:17.324Z,52.67
2023-05-06T00:45:45.628Z,53.01
2023-05-06T00:48:14.828Z,52.78
2023-05-06T00:50:42.638Z,52.66
2023-05-06T00:53:11.145Z,52.65
2023-05-06T00:55:40.307Z,52.66
2023-05-06T00:58:09.144Z,52.38
2023-05-06T01:00:38.945Z,52.03
2023-05-06T01:03:06.795Z,51.72
2023-05-06T01:05:48.050Z,51.19
2023-05-06T01:08:44.557Z,51.31
2023-05-06T01:12:04.170Z,50.68
2023-05-06T01:15:00.319Z,50.70
2023-05-06T01:17:30.945Z,51.00
2023-05-06T01:20:01.876Z,50.75
2023-05-06T01:22:31.621Z,50.54
2023-05-06T01:24:59.448Z,50.17
2023-05-06T01:27:28.786Z,50.13
2023-05-06T01:29:58.436Z,49.87
2023-05-06T01:32:37.072Z,49.71
2023-05-06T01:35:18.809Z,49.63
2023-05-06T01:37:55.886Z,49.78
2023-05-06T01:40:27.727Z,49.74
2023-05-06T01:42:56.803Z,49.62
2023-05-06T01:45:28.363Z,48.65
2023-05-06T01:47:57.489Z,48.47
2023-05-06T01:50:26.390Z,47.63
2023-05-06T01:53:01.825Z,48.07
2023-05-06T01:55:29.744Z,47.86
2023-05-06T01:57:57.723Z,47.94
2023-05-06T02:00:27.078Z,47.69
2023-05-06T02:02:54.912Z,47.63
2023-05-06T02:05:23.012Z,47.19
2023-05-06T02:07:56.217Z,46.98
2023-05-06T02:10:24.166Z,46.81
2023-05-06T02:12:58.583Z,46.57
2023-05-06T02:15:26.458Z,46.82
2023-05-06T02:17:55.286Z,46.48
2023-05-06T02:20:23.831Z,46.04
2023-05-06T02:22:51.923Z,45.87
2023-05-06T02:25:19.865Z,46.08
2023-05-06T02:27:47.664Z,45.70
2023-05-06T02:30:16.099Z,45.13
2023-05-06T02:32:44.101Z,45.30
2023-05-06T02:35:13.195Z,45.15
2023-05-06T02:37:41.536Z,45.32
2023-05-06T02:40:10.163Z,45.60
2023-05-06T02:42:38.014Z,44.90
2023-05-06T02:45:25.419Z,44.82
2023-05-06T02:48:13.417Z,44.82
2023-05-06T02:51:00.193Z,44.61
2023-05-06T02:53:28.525Z,44.61
2023-05-06T02:55:56.948Z,44.64
2023-05-06T02:58:26.334Z,44.34
2023-05-06T03:00:54.129Z,44.00
2023-05-06T03:03:22.572Z,44.30
2023-05-06T03:05:50.428Z,44.37
2023-05-06T03:08:19.140Z,43.78
2023-05-06T03:10:48.389Z,43.81
2023-05-06T03:13:19.597Z,43.96
2023-05-06T03:15:52.781Z,43.37
2023-05-06T03:18:21.424Z,43.87
2023-05-06T03:20:49.757Z,43.04
2023-05-06T03:23:18.252Z,43.32
2023-05-06T03:25:46.908Z,43.92
2023-05-06T03:28:16.171Z,44.02
2023-05-06T03:30:45.916Z,43.70
2023-05-06T03:33:14.416Z,44.04
2023-05-06T03:35:43.463Z,44.04
2023-05-06T03:38:12.151Z,44.40
2023-05-06T03:40:54.228Z,44.41
2023-05-06T03:43:22.584Z,44.08
2023-05-06T03:45:55.435Z,44.20
2023-05-06T03:48:25.194Z,44.49
2023-05-06T03:50:55.336Z,44.58
2023-05-06T03:53:23.422Z,44.79
2023-05-06T03:55:52.835Z,45.72
2023-05-06T03:58:20.766Z,46.30
2023-05-06T04:00:48.688Z,46.36
2023-05-06T04:03:17.099Z,46.61
2023-05-06T04:05:50.819Z,46.45
2023-05-06T04:08:22.815Z,46.28
2023-05-06T04:10:50.527Z,46.46
2023-05-06T04:13:27.084Z,46.81
2023-05-06T04:15:56.944Z,46.55
2023-05-06T04:18:29.788Z,46.58
2023-05-06T04:21:05.012Z,46.34
2023-05-06T04:23:36.177Z,46.37
2023-05-06T04:26:04.673Z,45.71
2023-05-06T04:28:34.332Z,45.64
2023-05-06T04:31:05.052Z,44.98
2023-05-06T04:33:45.979Z,45.22
2023-05-06T04:36:21.058Z,44.68
2023-05-06T04:39:10.613Z,44.85
2023-05-06T04:41:39.578Z,44.93
2023-05-06T04:44:27.463Z,44.92
2023-05-06T04:46:56.850Z,45.01
2023-05-06T04:49:25.571Z,45.03
2023-05-06T04:51:53.828Z,45.26
2023-05-06T04:54:23.055Z,44.73
2023-05-06T04:56:51.345Z,44.97
2023-05-06T04:59:22.310Z,45.23
2023-05-06T05:01:50.393Z,45.13
2023-05-06T05:04:18.472Z,45.35
2023-05-06T05:06:46.297Z,45.09
2023-05-06T05:09:14.884Z,45.21
2023-05-06T05:11:45.162Z,45.20
2023-05-06T05:14:13.036Z,45.18
2023-05-06T05:16:41.879Z,45.06
2023-05-06T05:19:09.895Z,44.98
2023-05-06T05:21:38.029Z,44.70
2023-05-06T05:24:07.569Z,45.01
2023-05-06T05:26:36.006Z,44.76
2023-05-06T05:29:03.985Z,44.97
2023-05-06T05:31:34.492Z,44.89
2023-05-06T05:34:02.914Z,44.74
2023-05-06T05:36:33.671Z,44.63
2023-05-06T05:39:04.434Z,44.71
2023-05-06T05:41:35.076Z,44.75
2023-05-06T05:44:03.543Z,44.75
2023-05-06T05:46:31.791Z,44.80
2023-05-06T05:49:01.127Z,44.73
2023-05-06T05:51:29.224Z,44.76
2023-05-06T05:53:58.856Z,45.01
2023-05-06T05:56:29.424Z,45.11
2023-05-06T05:58:58.054Z,45.31
2023-05-06T06:01:27.154Z,45.08
2023-05-06T06:03:56.859Z,45.15
2023-05-06T06:06:25.085Z,45.05
2023-05-06T06:08:53.514Z,45.12
2023-05-06T06:11:22.698Z,47.30
2023-05-06T06:13:52.324Z,46.21
2023-05-06T06:16:20.812Z,45.46
2023-05-06T06:18:50.277Z,45.40
2023-05-06T06:21:19.555Z,45.23
2023-05-06T06:23:48.104Z,45.39
2023-05-06T06:26:16.208Z,45.51
2023-05-06T06:28:45.054Z,45.65
2023-05-06T06:31:13.127Z,45.70
2023-05-06T06:33:40.844Z,45.86
2023-05-06T06:36:09.016Z,46.01
2023-05-06T06:38:36.804Z,46.14
2023-05-06T06:41:08.067Z,46.19
2023-05-06T06:43:36.993Z,46.36
2023-05-06T06:46:24.325Z,46.55
2023-05-06T06:48:52.227Z,46.72
2023-05-06T06:51:21.841Z,46.95
2023-05-06T06:53:52.451Z,47.14
2023-05-06T06:56:20.209Z,47.05
2023-05-06T06:58:48.028Z,47.22
2023-05-06T07:01:16.530Z,47.54
2023-05-06T07:03:44.327Z,47.61
2023-05-06T07:06:12.750Z,47.47
2023-05-06T07:08:43.165Z,47.39
2023-05-06T07:11:12.512Z,48.03
2023-05-06T07:13:40.729Z,47.92
2023-05-06T07:16:08.560Z,47.78
2023-05-06T07:18:36.708Z,47.65
2023-05-06T07:21:05.805Z,47.98
2023-05-06T07:23:36.060Z,48.24
2023-05-06T07:26:04.647Z,48.91
2023-05-06T07:28:33.743Z,48.89
2023-05-06T07:31:01.773Z,48.66
2023-05-06T07:33:30.098Z,48.22
2023-05-06T07:35:57.962Z,48.36
2023-05-06T07:38:27.686Z,48.06
2023-05-06T07:40:55.384Z,47.54
2023-05-06T07:43:23.757Z,47.80
2023-05-06T07:45:51.628Z,47.78
2023-05-06T07:48:20.355Z,47.66
2023-05-06T07:50:49.303Z,48.22
2023-05-06T07:53:17.637Z,47.52
2023-05-06T07:55:46.172Z,46.76
2023-05-06T07:58:14.209Z,46.12
2023-05-06T08:00:42.289Z,46.26
2023-05-06T08:03:10.294Z,45.85
2023-05-06T08:05:39.139Z,45.97
2023-05-06T08:08:07.643Z,45.86
2023-05-06T08:10:36.092Z,46.06
2023-05-06T08:13:04.248Z,45.73
2023-05-06T08:15:34.991Z,45.71
2023-05-06T08:18:20.998Z,46.05
2023-05-06T08:20:49.899Z,45.36
2023-05-06T08:23:21.162Z,45.26
2023-05-06T08:25:50.296Z,44.00
2023-05-06T08:28:18.241Z,43.25
2023-05-06T08:30:48.652Z,43.21
2023-05-06T08:33:16.552Z,43.18
2023-05-06T08:35:45.168Z,43.18
2023-05-06T08:38:13.138Z,43.40
2023-05-06T08:40:45.435Z,43.73
2023-05-06T08:43:17.014Z,43.91
2023-05-06T08:45:44.989Z,44.58
2023-05-06T08:48:13.216Z,45.45
2023-05-06T08:50:44.820Z,45.70
2023-05-06T08:53:13.657Z,46.00
2023-05-06T08:55:42.775Z,46.10
2023-05-06T08:58:15.896Z,46.16
2023-05-06T09:00:44.649Z,46.43
2023-05-06T09:03:13.840Z,47.04
2023-05-06T09:05:42.427Z,47.20
2023-05-06T09:08:12.115Z,46.96
2023-05-06T09:10:44.910Z,47.33
2023-05-06T09:13:20.508Z,47.02
2023-05-06T09:15:49.479Z,47.20
2023-05-06T09:18:17.559Z,46.32
2023-05-06T09:20:49.203Z,46.50
2023-05-06T09:23:19.242Z,46.55
2023-05-06T09:25:49.861Z,46.72
2023-05-06T09:28:17.784Z,47.59
2023-05-06T09:30:48.003Z,50.07
2023-05-06T09:33:16.532Z,48.87
2023-05-06T09:35:45.963Z,49.07
2023-05-06T09:38:13.782Z,48.50
2023-05-06T09:40:42.508Z,48.51
2023-05-06T09:43:11.141Z,50.60
2023-05-06T09:45:39.500Z,50.14
2023-05-06T09:48:08.807Z,50.39
2023-05-06T09:50:37.252Z,50.95
2023-05-06T09:53:06.661Z,49.66
2023-05-06T09:55:36.684Z,50.49
2023-05-06T09:58:06.523Z,50.86
2023-05-06T10:00:35.711Z,49.14
2023-05-06T10:03:05.090Z,48.96
2023-05-06T10:05:34.092Z,50.23
2023-05-06T10:08:04.519Z,49.03
2023-05-06T10:10:37.578Z,50.07
2023-05-06T10:13:05.514Z,50.16
2023-05-06T10:15:33.429Z,49.11
2023-05-06T10:18:01.925Z,49.29
2023-05-06T10:20:31.882Z,49.47
2023-05-06T10:23:08.761Z,49.10
2023-05-06T10:25:39.312Z,49.23
2023-05-06T10:28:16.660Z,49.33
2023-05-06T10:30:59.461Z,49.13
2023-05-06T10:33:28.524Z,49.04
2023-05-06T10:36:16.215Z,48.75
2023-05-06T10:38:47.495Z,49.08
2023-05-06T10:41:16.655Z,49.49
2023-05-06T10:43:45.510Z,49.58
2023-05-06T10:46:15.704Z,49.24
2023-05-06T10:49:06.856Z,49.16
2023-05-06T10:51:39.086Z,49.08
2023-05-06T10:54:19.113Z,49.57
2023-05-06T10:56:50.852Z,49.50
2023-05-06T10:59:24.673Z,50.12
2023-05-06T11:02:11.015Z,49.56
2023-05-06T11:04:39.772Z,49.83
2023-05-06T11:07:21.365Z,49.31
2023-05-06T11:10:08.373Z,49.40
2023-05-06T11:12:50.328Z,49.32
2023-05-06T11:15:27.519Z,50.30
2023-05-06T11:17:57.541Z,49.70
2023-05-06T11:20:26.948Z,49.86
2023-05-06T11:22:54.900Z,50.73
2023-05-06T11:25:42.035Z,51.54
2023-05-06T11:28:12.147Z,51.10
2023-05-06T11:30:54.009Z,51.00
2023-05-06T11:33:24.312Z,49.89
2023-05-06T11:35:53.395Z,51.66
2023-05-06T11:38:21.673Z,51.50
2023-05-06T11:40:49.507Z,51.33
2023-05-06T11:43:18.460Z,50.13
2023-05-06T11:45:50.881Z,50.77
2023-05-06T11:48:19.615Z,50.33
2023-05-06T11:50:48.874Z,50.22
2023-05-06T11:53:22.745Z,50.66
2023-05-06T11:55:54.357Z,50.96
2023-05-06T11:58:27.227Z,50.81
2023-05-06T12:01:02.822Z,51.45
2023-05-06T12:03:33.911Z,51.48
2023-05-06T12:06:02.579Z,51.97
2023-05-06T12:08:34.095Z,52.62
2023-05-06T12:11:08.400Z,53.31
2023-05-06T12:13:37.322Z,53.33
2023-05-06T12:16:08.044Z,52.84
2023-05-06T12:18:36.637Z,53.31
2023-05-06T12:21:04.739Z,53.14
2023-05-06T12:23:32.591Z,53.04
2023-05-06T12:26:05.191Z,53.35
2023-05-06T12:28:36.944Z,53.14
2023-05-06T12:31:24.347Z,53.11
2023-05-06T12:33:52.721Z,53.42
2023-05-06T12:36:21.462Z,52.81
2023-05-06T12:38:54.217Z,53.01
2023-05-06T12:41:24.889Z,52.65
2023-05-06T12:43:53.044Z,52.88
2023-05-06T12:46:21.092Z,53.00
2023-05-06T12:48:59.006Z,53.50
2023-05-06T12:51:29.010Z,53.13
2023-05-06T12:53:57.268Z,53.63
2023-05-06T12:56:25.372Z,52.94
2023-05-06T12:59:02.530Z,53.20
2023-05-06T13:01:31.836Z,53.51
2023-05-06T13:03:59.715Z,53.20
2023-05-06T13:06:27.671Z,52.94
2023-05-06T13:08:55.578Z,53.51
2023-05-06T13:11:25.978Z,53.31
2023-05-06T13:13:54.211Z,54.50
2023-05-06T13:16:23.379Z,54.55
2023-05-06T13:18:51.478Z,54.00
2023-05-06T13:21:19.219Z,53.65
2023-05-06T13:23:48.777Z,53.77
2023-05-06T13:26:19.690Z,53.57
2023-05-06T13:28:47.637Z,53.70
2023-05-06T13:31:15.694Z,53.88
2023-05-06T13:33:44.009Z,53.37
2023-05-06T13:36:11.896Z,53.56
2023-05-06T13:38:40.236Z,53.21
2023-05-06T13:41:09.133Z,53.34
2023-05-06T13:43:37.404Z,53.25
2023-05-06T13:46:09.294Z,53.15
2023-05-06T13:48:38.419Z,53.53
2023-05-06T13:51:06.184Z,53.26
2023-05-06T13:53:34.134Z,53.09
2023-05-06T13:56:02.115Z,53.07
2023-05-06T13:58:31.239Z,52.39
2023-05-06T14:01:01.809Z,52.78
2023-05-06T14:03:30.359Z,52.78
2023-05-06T14:05:59.923Z,52.30
2023-05-06T14:08:28.363Z,52.14
2023-05-06T14:10:57.303Z,52.00
2023-05-06T14:13:25.161Z,52.14
2023-05-06T14:15:55.047Z,52.52
2023-05-06T14:18:26.455Z,52.59
2023-05-06T14:20:54.963Z,52.27
2023-05-06T14:23:23.314Z,51.64
2023-05-06T14:25:51.310Z,51.66
2023-05-06T14:28:25.033Z,51.77
2023-05-06T14:30:54.814Z,51.56
2023-05-06T14:33:25.084Z,51.66
2023-05-06T14:35:55.031Z,51.43
2023-05-06T14:38:24.712Z,51.65
2023-05-06T14:40:52.567Z,51.60
2023-05-06T14:43:20.454Z,51.20
2023-05-06T14:45:48.455Z,51.49
2023-05-06T14:48:16.893Z,51.81
2023-05-06T14:50:44.744Z,51.39
2023-05-06T14:53:12.458Z,51.80
2023-05-06T14:55:41.456Z,51.53
2023-05-06T14:58:09.322Z,51.64
2023-05-06T15:00:37.239Z,51.48
2023-05-06T15:03:05.864Z,51.47
2023-05-06T15:05:37.405Z,51.27
2023-05-06T15:08:06.650Z,51.44
2023-05-06T15:10:34.757Z,51.83
2023-05-06T15:13:06.004Z,50.69
2023-05-06T15:15:35.611Z,51.08
2023-05-06T15:18:04.859Z,51.06
2023-05-06T15:20:32.868Z,51.18
2023-05-06T15:23:01.794Z,51.32
2023-05-06T15:25:35.792Z,51.17
2023-05-06T15:28:08.438Z,50.67
2023-05-06T15:30:37.891Z,50.81
2023-05-06T15:33:05.946Z,50.45
2023-05-06T15:35:34.243Z,50.53
2023-05-06T15:38:04.560Z,50.21
2023-05-06T15:40:37.029Z,50.49
2023-05-06T15:43:06.040Z,49.75
2023-05-06T15:45:33.830Z,49.16
2023-05-06T15:48:15.365Z,49.06
2023-05-06T15:50:53.230Z,49.26
2023-05-06T15:53:48.575Z,49.76
2023-05-06T15:56:40.738Z,49.38
2023-05-06T15:59:17.905Z,51.13
2023-05-06T16:02:25.717Z,49.86
2023-05-06T16:05:02.034Z,50.14
2023-05-06T16:07:43.317Z,49.80
2023-05-06T16:10:19.446Z,50.03
2023-05-06T16:12:57.592Z,50.52
2023-05-06T16:15:35.751Z,51.09
2023-05-06T16:18:14.229Z,51.13
2023-05-06T16:20:43.038Z,51.66
2023-05-06T16:23:10.950Z,51.96
2023-05-06T16:25:38.602Z,52.33
2023-05-06T16:28:08.944Z,52.17
2023-05-06T16:30:40.384Z,51.84
2023-05-06T16:33:44.602Z,51.44
2023-05-06T16:36:40.528Z,51.59
2023-05-06T16:39:12.317Z,51.91
2023-05-06T16:41:44.407Z,52.00
2023-05-06T16:44:12.496Z,52.16
2023-05-06T16:46:40.364Z,51.62
2023-05-06T16:49:10.243Z,51.62
2023-05-06T16:51:40.912Z,51.20
2023-05-06T16:54:08.989Z,50.80
2023-05-06T16:56:50.907Z,50.78
2023-05-06T16:59:22.395Z,50.58
2023-05-06T17:01:54.115Z,50.19
2023-05-06T17:04:24.707Z,50.62
2023-05-06T17:06:55.288Z,49.83
2023-05-06T17:09:23.082Z,49.62
2023-05-06T17:11:50.956Z,49.72
2023-05-06T17:14:20.101Z,49.45
2023-05-06T17:16:49.326Z,49.12
2023-05-06T17:19:25.344Z,49.31
2023-05-06T17:21:53.501Z,49.46
2023-05-06T17:24:23.717Z,49.30
2023-05-06T17:26:51.703Z,48.87
2023-05-06T17:29:22.312Z,48.46
2023-05-06T17:31:50.317Z,48.26
2023-05-06T17:34:18.842Z,48.23
2023-05-06T17:36:46.720Z,48.32
2023-05-06T17:39:17.150Z,48.87
2023-05-06T17:41:45.928Z,48.77
2023-05-06T17:44:18.457Z,49.27
2023-05-06T17:46:46.460Z,49.83
2023-05-06T17:49:14.442Z,49.52
2023-05-06T17:51:46.404Z,49.72
2023-05-06T17:54:16.056Z,50.11
2023-05-06T17:56:52.397Z,48.74
2023-05-06T17:59:26.194Z,48.23
2023-05-06T18:01:54.170Z,47.88
2023-05-06T18:04:40.449Z,46.95
2023-05-06T18:07:16.182Z,47.26
2023-05-06T18:09:52.516Z,47.09
2023-05-06T18:12:33.750Z,47.97
2023-05-06T18:15:09.407Z,48.59
2023-05-06T18:17:44.905Z,48.26
2023-05-06T18:20:13.490Z,48.45
2023-05-06T18:22:43.056Z,48.64
2023-05-06T18:25:13.937Z,48.68
2023-05-06T18:27:42.906Z,49.33
2023-05-06T18:30:18.442Z,49.27
2023-05-06T18:32:51.342Z,49.64
2023-05-06T18:35:24.005Z,50.65
2023-05-06T18:37:56.397Z,50.85
2023-05-06T18:40:28.421Z,50.31
2023-05-06T18:42:56.848Z,50.18
2023-05-06T18:45:25.814Z,50.25
2023-05-06T18:47:56.663Z,50.44
2023-05-06T18:50:32.356Z,50.45
2023-05-06T18:53:32.433Z,50.20
2023-05-06T18:56:11.924Z,50.27
2023-05-06T18:58:43.223Z,50.36
2023-05-06T19:01:12.197Z,50.71
2023-05-06T19:03:59.656Z,50.82
2023-05-06T19:06:33.352Z,51.26
2023-05-06T19:09:08.476Z,51.62
2023-05-06T19:11:36.472Z,51.75
2023-05-06T19:14:05.263Z,51.41
2023-05-06T19:16:33.450Z,52.04
2023-05-06T19:19:03.550Z,51.80
2023-05-06T19:21:31.866Z,51.91
2023-05-06T19:24:01.194Z,52.30
2023-05-06T19:26:29.699Z,52.20
2023-05-06T19:28:57.748Z,52.24
2023-05-06T19:31:28.486Z,52.27
2023-05-06T19:33:57.273Z,52.51
2023-05-06T19:36:28.436Z,52.58
2023-05-06T19:38:57.388Z,52.22
2023-05-06T19:41:26.514Z,52.55
2023-05-06T19:44:00.129Z,52.53
2023-05-06T19:46:30.689Z,52.65
2023-05-06T19:49:00.775Z,52.31
2023-05-06T19:51:30.741Z,52.32
2023-05-06T19:53:59.492Z,52.48
2023-05-06T19:56:28.735Z,52.33
2023-05-06T19:59:00.038Z,52.55
2023-05-06T20:01:27.916Z,53.03
2023-05-06T20:03:56.049Z,53.15
2023-05-06T20:06:25.510Z,53.33
2023-05-06T20:08:56.697Z,53.06
2023-05-06T20:11:27.690Z,53.09
2023-05-06T20:13:55.827Z,52.88
2023-05-06T20:16:23.948Z,52.88
2023-05-06T20:18:53.426Z,52.65
2023-05-06T20:21:21.358Z,52.88
2023-05-06T20:23:51.014Z,52.77
2023-05-06T20:26:18.876Z,52.75
2023-05-06T20:28:47.007Z,53.08
2023-05-06T20:31:15.361Z,53.34
2023-05-06T20:33:43.376Z,52.74
2023-05-06T20:36:14.280Z,53.17
2023-05-06T20:38:43.098Z,53.00
2023-05-06T20:41:14.248Z,53.00
2023-05-06T20:47:15.520Z,52.81
2023-05-06T20:49:51.547Z,52.86
2023-05-06T20:52:50.664Z,53.18
2023-05-06T20:58:35.545Z,53.13
2023-05-06T21:01:13.636Z,53.00
2023-05-06T21:06:57.847Z,53.20
2023-05-06T21:09:28.065Z,53.41
2023-05-06T21:11:57.582Z,52.86
2023-05-06T21:14:29.261Z,53.04
2023-05-06T21:16:57.918Z,52.87
2023-05-06T21:19:26.142Z,52.98
2023-05-06T21:21:56.928Z,52.34
2023-05-06T21:24:25.457Z,52.32
2023-05-06T21:27:07.054Z,51.92
2023-05-06T21:29:46.850Z,51.61
2023-05-06T21:32:18.738Z,51.62
2023-05-06T21:34:47.566Z,51.38
2023-05-06T21:37:15.631Z,51.61
2023-05-06T21:39:46.504Z,51.00
2023-05-06T21:42:16.535Z,51.05
2023-05-06T21:44:45.893Z,50.62
2023-05-06T21:47:14.773Z,50.92
2023-05-06T21:49:43.492Z,50.29
2023-05-06T21:52:11.369Z,50.03
2023-05-06T21:54:46.214Z,50.23
2023-05-06T21:57:15.097Z,49.99
2023-05-06T21:59:46.022Z,49.46
2023-05-06T22:02:16.670Z,49.08
2023-05-06T22:04:49.755Z,48.87
2023-05-06T22:07:20.845Z,48.82
2023-05-06T22:09:51.407Z,48.85
2023-05-06T22:12:24.831Z,48.74
2023-05-06T22:15:15.805Z,48.67
2023-05-06T22:18:01.567Z,48.53
2023-05-06T22:20:51.056Z,48.46
2023-05-06T22:23:40.788Z,48.10
2023-05-06T22:26:24.736Z,48.36
2023-05-06T22:28:54.765Z,48.60
2023-05-06T22:34:25.064Z,48.57
2023-05-06T22:37:14.055Z,48.49
2023-05-06T22:39:48.192Z,48.38
2023-05-06T22:42:19.295Z,48.69
2023-05-06T22:45:02.990Z,48.52
2023-05-06T22:47:52.129Z,48.49
2023-05-06T22:50:28.926Z,48.60
2023-05-06T22:53:39.648Z,48.13
2023-05-06T22:56:16.207Z,48.61
2023-05-06T22:58:45.915Z,48.56
2023-05-06T23:01:16.790Z,48.17
2023-05-06T23:03:45.054Z,47.97
2023-05-06T23:09:11.196Z,47.97
2023-05-06T23:11:46.500Z,48.08
2023-05-06T23:14:36.152Z,47.66
2023-05-06T23:17:27.342Z,47.82
2023-05-06T23:20:45.759Z,47.35
2023-05-06T23:23:25.427Z,47.11
2023-05-06T23:29:50.687Z,47.10
2023-05-06T23:32:28.944Z,47.03
2023-05-06T23:35:17.659Z,47.23
2023-05-06T23:37:59.088Z,47.32
2023-05-06T23:40:34.208Z,47.09
2023-05-06T23:43:07.451Z,47.16
2023-05-06T23:45:35.761Z,47.30
2023-05-06T23:48:18.691Z,47.24
2023-05-06T23:50:57.805Z,46.81
2023-05-06T23:53:31.005Z,46.94
2023-05-06T23:56:22.615Z,47.13
2023-05-06T23:59:37.040Z,47.08
